createdAt,value
2022-12-03T00:02:31.333Z,3.02
2022-12-03T00:05:33.860Z,3.03
2022-12-03T00:08:36.123Z,2.96
2022-12-03T00:11:38.556Z,2.98
2022-12-03T00:14:44.603Z,2.93
2022-12-03T00:17:47.415Z,2.98
2022-12-03T00:20:49.480Z,2.99
2022-12-03T00:23:51.877Z,2.97
2022-12-03T00:26:53.944Z,2.88
2022-12-03T00:29:56.300Z,2.86
2022-12-03T00:32:58.378Z,2.85
2022-12-03T00:36:00.718Z,2.91
2022-12-03T00:39:02.912Z,2.95
2022-12-03T00:42:05.538Z,2.93
2022-12-03T00:45:07.986Z,2.95
2022-12-03T00:48:10.328Z,2.86
2022-12-03T00:51:12.392Z,2.88
2022-12-03T00:54:15.176Z,2.91
2022-12-03T00:57:17.298Z,2.88
2022-12-03T01:00:24.502Z,2.83
2022-12-03T01:03:26.854Z,2.82
2022-12-03T01:06:29.284Z,2.85
2022-12-03T01:09:31.497Z,2.91
2022-12-03T01:12:33.929Z,2.85
2022-12-03T01:15:36.122Z,2.84
2022-12-03T01:18:38.550Z,2.92
2022-12-03T01:21:40.675Z,2.89
2022-12-03T01:24:43.017Z,2.83
2022-12-03T01:27:45.107Z,2.91
2022-12-03T01:31:06.181Z,3.07
2022-12-03T01:34:08.317Z,3.18
2022-12-03T01:37:10.723Z,3.11
2022-12-03T01:40:16.412Z,3.07
2022-12-03T01:43:18.838Z,2.92
2022-12-03T01:46:23.627Z,2.98
2022-12-03T01:49:40.788Z,2.91
2022-12-03T01:52:44.188Z,3.08
2022-12-03T01:55:48.893Z,2.98
2022-12-03T01:58:51.298Z,2.95
2022-12-03T02:01:53.705Z,2.97
2022-12-03T02:04:57.216Z,2.99
2022-12-03T02:08:01.055Z,2.92
2022-12-03T02:11:14.273Z,2.98
2022-12-03T02:14:20.203Z,3.10
2022-12-03T02:17:22.417Z,3.12
2022-12-03T02:20:24.834Z,3.11
2022-12-03T02:23:32.104Z,3.15
2022-12-03T02:26:34.584Z,3.19
2022-12-03T02:29:36.874Z,3.13
2022-12-03T02:32:39.943Z,3.21
2022-12-03T02:35:42.161Z,3.16
2022-12-03T02:38:48.096Z,3.19
2022-12-03T02:42:08.837Z,3.20
2022-12-03T02:45:11.600Z,3.08
2022-12-03T02:48:21.141Z,3.13
2022-12-03T02:51:23.799Z,3.21
2022-12-03T02:54:25.993Z,3.29
2022-12-03T02:57:28.412Z,3.25
2022-12-03T03:00:30.969Z,3.22
2022-12-03T03:03:33.746Z,3.18
2022-12-03T03:06:35.965Z,3.14
2022-12-03T03:09:38.584Z,3.15
2022-12-03T03:12:41.454Z,3.25
2022-12-03T03:15:45.410Z,3.30
2022-12-03T03:18:48.681Z,3.23
2022-12-03T03:21:51.588Z,3.24
2022-12-03T03:24:54.004Z,3.08
2022-12-03T03:27:56.663Z,3.08
2022-12-03T03:31:02.493Z,3.12
2022-12-03T03:34:05.344Z,3.08
2022-12-03T03:37:07.486Z,3.14
2022-12-03T03:40:10.534Z,3.13
2022-12-03T03:43:13.695Z,3.19
2022-12-03T03:46:17.590Z,3.16
2022-12-03T03:49:20.113Z,3.22
2022-12-03T03:52:23.123Z,3.29
2022-12-03T03:55:25.528Z,3.17
2022-12-03T03:58:27.973Z,3.21
2022-12-03T04:01:30.984Z,3.17
2022-12-03T04:04:36.565Z,3.18
2022-12-03T04:07:38.871Z,3.18
2022-12-03T04:11:00.080Z,3.19
2022-12-03T04:14:02.690Z,3.20
2022-12-03T04:17:05.110Z,3.25
2022-12-03T04:20:07.420Z,3.27
2022-12-03T04:23:10.428Z,3.16
2022-12-03T04:26:30.925Z,3.12
2022-12-03T04:29:33.349Z,3.06
2022-12-03T04:32:54.383Z,3.05
2022-12-03T04:35:56.642Z,3.09
2022-12-03T04:38:58.710Z,3.17
2022-12-03T04:42:01.668Z,3.13
2022-12-03T04:45:03.974Z,3.22
2022-12-03T04:48:06.405Z,3.20
2022-12-03T04:51:08.528Z,3.18
2022-12-03T04:54:11.006Z,3.26
2022-12-03T04:57:13.245Z,3.28
2022-12-03T05:00:16.103Z,3.11
2022-12-03T05:03:18.251Z,3.13
2022-12-03T05:06:20.616Z,3.15
2022-12-03T05:09:23.200Z,3.08
2022-12-03T05:12:25.592Z,2.99
2022-12-03T05:15:27.681Z,3.02
2022-12-03T05:18:30.053Z,2.98
2022-12-03T05:21:32.272Z,3.01
2022-12-03T05:24:34.600Z,3.10
2022-12-03T05:27:36.973Z,3.04
2022-12-03T05:30:39.494Z,3.04
2022-12-03T05:33:44.379Z,3.06
2022-12-03T05:36:46.941Z,3.01
2022-12-03T05:39:49.058Z,2.90
2022-12-03T05:42:54.073Z,2.90
2022-12-03T05:45:56.197Z,2.90
2022-12-03T05:48:58.660Z,2.87
2022-12-03T05:52:00.739Z,2.92
2022-12-03T05:55:04.404Z,2.90
2022-12-03T05:58:06.519Z,2.84
2022-12-03T06:01:08.891Z,2.94
2022-12-03T06:04:11.309Z,2.92
2022-12-03T06:07:14.334Z,2.95
2022-12-03T06:10:20.880Z,2.91
2022-12-03T06:13:22.978Z,2.90
2022-12-03T06:16:25.480Z,2.94
2022-12-03T06:19:27.717Z,3.01
2022-12-03T06:22:30.099Z,3.06
2022-12-03T06:25:32.508Z,3.10
2022-12-03T06:28:36.730Z,3.03
2022-12-03T06:31:38.890Z,3.09
2022-12-03T06:34:41.391Z,3.23
2022-12-03T06:37:43.506Z,3.22
2022-12-03T06:40:45.877Z,3.18
2022-12-03T06:43:47.953Z,3.25
2022-12-03T06:46:50.420Z,3.27
2022-12-03T06:49:52.583Z,3.33
2022-12-03T06:52:54.972Z,3.34
2022-12-03T06:55:57.232Z,3.40
2022-12-03T06:58:59.777Z,3.43
2022-12-03T07:02:01.910Z,3.36
2022-12-03T07:05:04.830Z,3.55
2022-12-03T07:08:07.081Z,3.50
2022-12-03T07:11:29.496Z,3.57
2022-12-03T07:14:31.636Z,3.56
2022-12-03T07:17:34.091Z,3.60
2022-12-03T07:20:36.280Z,3.55
2022-12-03T07:23:38.968Z,3.52
2022-12-03T07:26:41.115Z,3.56
2022-12-03T07:29:43.478Z,3.58
2022-12-03T07:32:45.640Z,3.54
2022-12-03T07:35:47.959Z,3.58
2022-12-03T07:38:50.157Z,3.77
2022-12-03T07:41:52.617Z,3.78
2022-12-03T07:44:55.060Z,3.77
2022-12-03T07:47:57.667Z,3.72
2022-12-03T07:50:59.854Z,3.73
2022-12-03T07:54:02.316Z,3.80
2022-12-03T07:57:04.487Z,3.89
2022-12-03T08:00:07.514Z,3.99
2022-12-03T08:03:11.001Z,4.13
2022-12-03T08:06:13.198Z,4.16
2022-12-03T08:09:16.423Z,4.17
2022-12-03T08:12:39.922Z,4.11
2022-12-03T08:15:43.077Z,4.10
2022-12-03T08:18:46.775Z,4.08
2022-12-03T08:21:49.125Z,4.12
2022-12-03T08:24:51.436Z,4.13
2022-12-03T08:28:02.668Z,4.12
2022-12-03T08:31:18.304Z,4.15
2022-12-03T08:34:34.091Z,4.05
2022-12-03T08:37:36.226Z,4.19
2022-12-03T08:40:43.552Z,4.26
2022-12-03T08:43:46.359Z,4.35
2022-12-03T08:47:08.871Z,4.32
2022-12-03T08:50:29.146Z,4.23
2022-12-03T08:53:47.700Z,4.23
2022-12-03T08:56:49.812Z,4.21
2022-12-03T09:00:04.068Z,4.31
2022-12-03T09:03:15.802Z,4.49
2022-12-03T09:06:18.477Z,4.48
2022-12-03T09:09:21.476Z,4.63
2022-12-03T09:12:23.885Z,4.63
2022-12-03T09:15:26.026Z,4.63
2022-12-03T09:18:28.377Z,4.63
2022-12-03T09:21:30.435Z,4.75
2022-12-03T09:24:32.792Z,4.89
2022-12-03T09:27:34.886Z,5.08
2022-12-03T09:30:37.283Z,5.08
2022-12-03T09:33:39.532Z,5.07
2022-12-03T09:36:41.887Z,5.04
2022-12-03T09:39:43.959Z,5.05
2022-12-03T09:42:46.669Z,5.07
2022-12-03T09:45:49.559Z,5.08
2022-12-03T09:48:52.233Z,5.07
2022-12-03T09:52:00.735Z,5.23
2022-12-03T09:55:15.559Z,5.31
2022-12-03T09:58:19.054Z,5.42
2022-12-03T10:01:21.893Z,5.51
2022-12-03T10:04:24.787Z,5.64
2022-12-03T10:07:27.046Z,5.74
2022-12-03T10:10:29.506Z,5.93
2022-12-03T10:13:32.555Z,6.14
2022-12-03T10:16:35.992Z,6.12
2022-12-03T10:19:39.653Z,6.14
2022-12-03T10:22:42.131Z,6.22
2022-12-03T10:25:52.571Z,6.21
2022-12-03T10:28:56.752Z,6.31
2022-12-03T10:32:05.662Z,6.29
2022-12-03T10:35:20.802Z,6.40
2022-12-03T10:38:23.375Z,6.48
2022-12-03T10:41:27.943Z,6.61
2022-12-03T10:44:30.587Z,6.62
2022-12-03T10:47:33.159Z,6.76
2022-12-03T10:50:35.990Z,6.74
2022-12-03T10:53:40.542Z,6.68
2022-12-03T10:56:43.652Z,6.78
2022-12-03T10:59:46.640Z,6.98
2022-12-03T11:02:54.939Z,6.94
2022-12-03T11:06:00.921Z,6.89
2022-12-03T11:09:08.865Z,6.99
2022-12-03T11:12:23.533Z,7.15
2022-12-03T11:15:43.697Z,7.35
2022-12-03T11:18:59.142Z,7.52
2022-12-03T11:22:07.194Z,7.68
2022-12-03T11:25:24.554Z,7.56
2022-12-03T11:28:26.552Z,7.59
2022-12-03T11:31:36.046Z,7.51
2022-12-03T11:34:38.261Z,7.57
2022-12-03T11:37:40.920Z,7.76
2022-12-03T11:41:08.605Z,7.80
2022-12-03T11:44:30.027Z,8.00
2022-12-03T11:47:33.707Z,8.08
2022-12-03T11:50:53.336Z,8.04
2022-12-03T11:53:59.073Z,7.98
2022-12-03T11:57:02.541Z,8.03
2022-12-03T12:00:15.878Z,7.94
2022-12-03T12:03:34.893Z,7.88
2022-12-03T12:06:42.637Z,7.89
2022-12-03T12:09:53.687Z,8.02
2022-12-03T12:12:57.277Z,7.81
2022-12-03T12:16:01.754Z,7.83
2022-12-03T12:19:31.985Z,7.90
2022-12-03T12:22:34.530Z,7.67
2022-12-03T12:25:41.578Z,7.67
2022-12-03T12:28:44.017Z,7.52
2022-12-03T12:31:50.779Z,7.58
2022-12-03T12:35:16.224Z,7.53
2022-12-03T12:38:20.829Z,7.54
2022-12-03T12:41:24.138Z,7.52
2022-12-03T12:44:27.356Z,7.43
2022-12-03T12:47:30.139Z,7.39
2022-12-03T12:50:33.218Z,7.33
2022-12-03T12:53:38.814Z,7.46
2022-12-03T12:56:43.754Z,7.33
2022-12-03T12:59:46.104Z,7.13
2022-12-03T13:03:01.127Z,7.08
2022-12-03T13:06:04.043Z,7.23
2022-12-03T13:09:15.481Z,7.29
2022-12-03T13:12:21.873Z,7.22
2022-12-03T13:15:41.550Z,7.25
2022-12-03T13:18:47.386Z,7.19
2022-12-03T13:21:51.038Z,7.12
2022-12-03T13:24:56.133Z,7.00
2022-12-03T13:27:58.229Z,7.05
2022-12-03T13:31:22.349Z,6.97
2022-12-03T13:34:30.870Z,7.09
2022-12-03T13:37:33.753Z,7.10
2022-12-03T13:40:36.138Z,7.03
2022-12-03T13:43:44.385Z,7.03
2022-12-03T13:46:47.216Z,7.01
2022-12-03T13:49:54.039Z,6.88
2022-12-03T13:52:56.989Z,6.89
2022-12-03T13:56:38.158Z,6.88
2022-12-03T13:59:40.382Z,6.84
2022-12-03T14:02:42.955Z,6.85
2022-12-03T14:05:45.382Z,6.81
2022-12-03T14:08:47.481Z,6.75
2022-12-03T14:12:08.395Z,6.79
2022-12-03T14:15:11.358Z,6.72
2022-12-03T14:18:13.696Z,6.72
2022-12-03T14:21:16.002Z,6.71
2022-12-03T14:24:18.340Z,6.67
2022-12-03T14:27:21.397Z,6.66
2022-12-03T14:30:23.738Z,6.65
2022-12-03T14:33:25.797Z,6.60
2022-12-03T14:36:28.147Z,6.61
2022-12-03T14:39:30.253Z,6.73
2022-12-03T14:42:32.660Z,6.75
2022-12-03T14:45:34.857Z,6.56
2022-12-03T14:48:37.253Z,6.58
2022-12-03T14:51:39.350Z,6.51
2022-12-03T14:54:42.761Z,6.54
2022-12-03T14:57:45.093Z,6.43
2022-12-03T15:00:47.661Z,6.46
2022-12-03T15:03:49.884Z,6.47
2022-12-03T15:06:52.313Z,6.40
2022-12-03T15:09:54.720Z,6.40
2022-12-03T15:12:57.242Z,6.41
2022-12-03T15:15:59.520Z,6.47
2022-12-03T15:19:02.029Z,6.46
2022-12-03T15:22:04.297Z,6.32
2022-12-03T15:25:07.672Z,6.36
2022-12-03T15:28:10.158Z,6.29
2022-12-03T15:31:12.517Z,6.21
2022-12-03T15:34:20.346Z,6.18
2022-12-03T15:37:27.615Z,6.26
2022-12-03T15:40:29.787Z,6.21
2022-12-03T15:43:32.190Z,6.21
2022-12-03T15:46:34.393Z,6.21
2022-12-03T15:49:36.796Z,6.08
2022-12-03T15:52:38.955Z,6.16
2022-12-03T15:55:41.408Z,6.17
2022-12-03T15:58:43.930Z,6.08
2022-12-03T16:01:46.312Z,6.11
2022-12-03T16:04:48.870Z,6.15
2022-12-03T16:07:51.098Z,6.05
2022-12-03T16:10:53.871Z,5.95
2022-12-03T16:13:56.231Z,6.02
2022-12-03T16:17:02.155Z,6.07
2022-12-03T16:20:05.468Z,6.04
2022-12-03T16:23:08.189Z,6.06
2022-12-03T16:26:10.241Z,6.01
2022-12-03T16:29:12.627Z,5.87
2022-12-03T16:32:14.717Z,5.90
2022-12-03T16:35:17.230Z,5.85
2022-12-03T16:38:19.312Z,5.83
2022-12-03T16:41:22.621Z,5.87
2022-12-03T16:44:34.038Z,5.80
2022-12-03T16:47:36.601Z,5.79
2022-12-03T16:50:38.718Z,5.68
2022-12-03T16:53:41.218Z,5.65
2022-12-03T16:56:43.347Z,5.65
2022-12-03T16:59:45.900Z,5.72
2022-12-03T17:02:48.681Z,5.71
2022-12-03T17:05:51.098Z,5.76
2022-12-03T17:08:53.211Z,5.74
2022-12-03T17:11:55.598Z,5.81
2022-12-03T17:14:57.679Z,5.77
2022-12-03T17:18:00.514Z,5.77
2022-12-03T17:21:02.654Z,5.66
2022-12-03T17:24:05.174Z,5.69
2022-12-03T17:27:08.036Z,5.71
2022-12-03T17:30:11.050Z,5.60
2022-12-03T17:33:13.181Z,5.59
2022-12-03T17:36:15.526Z,5.62
2022-12-03T17:39:17.697Z,5.61
2022-12-03T17:42:20.041Z,5.49
2022-12-03T17:45:22.108Z,5.59
2022-12-03T17:48:24.513Z,5.57
2022-12-03T17:51:26.598Z,5.61
2022-12-03T17:54:43.477Z,5.55
2022-12-03T17:57:51.180Z,5.57
2022-12-03T18:00:58.595Z,5.62
2022-12-03T18:04:04.718Z,5.60
2022-12-03T18:07:06.910Z,5.48
2022-12-03T18:10:09.547Z,5.51
2022-12-03T18:13:11.686Z,5.49
2022-12-03T18:16:15.513Z,5.51
2022-12-03T18:19:17.710Z,5.42
2022-12-03T18:22:20.509Z,5.35
2022-12-03T18:25:22.602Z,5.39
2022-12-03T18:28:24.985Z,5.37
2022-12-03T18:31:27.130Z,5.35
2022-12-03T18:34:29.509Z,5.33
2022-12-03T18:37:32.168Z,5.29
2022-12-03T18:40:34.621Z,5.24
2022-12-03T18:43:36.698Z,5.19
2022-12-03T18:46:53.492Z,5.14
2022-12-03T18:49:57.805Z,5.31
2022-12-03T18:53:00.399Z,5.18
2022-12-03T18:56:02.936Z,5.21
2022-12-03T18:59:07.402Z,5.09
2022-12-03T19:02:53.844Z,5.13
2022-12-03T19:05:40.108Z,5.29
2022-12-03T19:08:42.971Z,5.37
2022-12-03T19:11:45.366Z,5.33
2022-12-03T19:14:47.482Z,5.37
2022-12-03T19:17:50.317Z,5.50
2022-12-03T19:20:52.474Z,5.37
2022-12-03T19:24:22.632Z,5.40
2022-12-03T19:27:17.362Z,5.33
2022-12-03T19:30:21.988Z,5.29
2022-12-03T19:33:28.423Z,5.22
2022-12-03T19:36:32.248Z,5.16
2022-12-03T19:39:34.696Z,5.10
2022-12-03T19:42:37.103Z,5.09
2022-12-03T19:45:39.245Z,5.23
2022-12-03T19:48:42.217Z,5.25
2022-12-03T19:51:44.388Z,5.25
2022-12-03T19:54:46.748Z,5.32
2022-12-03T19:57:48.864Z,5.31
2022-12-03T20:00:51.259Z,5.38
2022-12-03T20:03:56.192Z,5.33
2022-12-03T20:06:58.322Z,5.21
2022-12-03T20:10:00.688Z,5.19
2022-12-03T20:13:03.257Z,5.11
2022-12-03T20:16:08.638Z,5.04
2022-12-03T20:19:12.841Z,5.08
2022-12-03T20:22:15.225Z,5.10
2022-12-03T20:25:17.380Z,5.08
2022-12-03T20:28:20.095Z,5.12
2022-12-03T20:31:24.491Z,5.20
2022-12-03T20:34:26.932Z,5.32
2022-12-03T20:37:29.222Z,5.30
2022-12-03T20:40:36.420Z,5.28
2022-12-03T20:43:39.139Z,5.33
2022-12-03T20:46:41.612Z,5.22
2022-12-03T20:49:43.825Z,5.31
2022-12-03T20:53:03.581Z,5.24
2022-12-03T20:56:08.624Z,5.22
2022-12-03T20:59:14.447Z,5.28
2022-12-03T21:02:16.738Z,5.29
2022-12-03T21:05:19.291Z,5.35
2022-12-03T21:08:39.877Z,5.32
2022-12-03T21:11:43.146Z,5.32
2022-12-03T21:14:45.341Z,5.29
2022-12-03T21:17:47.785Z,5.34
2022-12-03T21:20:49.960Z,5.42
2022-12-03T21:23:52.802Z,5.33
2022-12-03T21:26:54.893Z,5.31
2022-12-03T21:29:57.538Z,5.33
2022-12-03T21:32:59.895Z,5.28
2022-12-03T21:36:02.755Z,5.20
2022-12-03T21:39:06.057Z,5.22
2022-12-03T21:42:22.328Z,5.25
2022-12-03T21:45:30.819Z,5.31
2022-12-03T21:48:33.723Z,5.37
2022-12-03T21:51:35.797Z,5.35
2022-12-03T21:54:38.264Z,5.28
2022-12-03T21:57:40.403Z,5.19
2022-12-03T22:00:42.791Z,5.13
2022-12-03T22:03:45.649Z,5.15
2022-12-03T22:06:47.764Z,5.27
2022-12-03T22:09:50.115Z,5.14
2022-12-03T22:12:52.209Z,5.10
2022-12-03T22:15:54.636Z,5.16
2022-12-03T22:18:56.751Z,5.21
2022-12-03T22:21:59.164Z,5.11
2022-12-03T22:25:01.272Z,4.97
2022-12-03T22:28:03.801Z,5.11
2022-12-03T22:31:09.985Z,5.20
2022-12-03T22:34:12.726Z,5.10
2022-12-03T22:37:15.037Z,5.15
2022-12-03T22:40:20.648Z,5.22
2022-12-03T22:43:23.365Z,5.12
2022-12-03T22:46:25.817Z,5.15
2022-12-03T22:49:28.097Z,5.12
2022-12-03T22:52:30.518Z,5.08
2022-12-03T22:55:32.849Z,5.05
2022-12-03T22:58:37.869Z,5.15
2022-12-03T23:01:41.177Z,5.16
2022-12-03T23:04:43.872Z,5.19
2022-12-03T23:07:46.015Z,5.14
2022-12-03T23:10:51.259Z,5.14
2022-12-03T23:13:55.269Z,5.17
2022-12-03T23:16:57.798Z,5.17
2022-12-03T23:20:00.151Z,5.20
2022-12-03T23:23:02.538Z,5.15
2022-12-03T23:26:07.524Z,5.11
2022-12-03T23:29:09.949Z,5.18
2022-12-03T23:32:12.154Z,5.08
2022-12-03T23:35:14.647Z,5.06
2022-12-03T23:38:19.726Z,5.11
2022-12-03T23:41:23.484Z,5.06
2022-12-03T23:44:27.487Z,5.05
2022-12-03T23:47:30.041Z,5.01
2022-12-03T23:50:32.099Z,4.97
2022-12-03T23:53:35.485Z,4.99
2022-12-03T23:56:38.129Z,4.89
2022-12-03T23:59:42.025Z,5.00
